Meteo Giornale » Osservazioni meteo Slovenia » Maribor-Slivnica

ore: 13:00 - Osservazioni Meteo Maribor-Slivnica
Lat. 46° 29' N Lon. 15° 41' E Alt. 264 metri s.l.m.

coperto_pioggia Europe/Ljubljana

19 °C

Pioggia Debole

Temp. 24 Ore

16 °C

29 °C

Nord

1.8 Km/h

Dew point 15 °C

Umidità 77 %

Visibilità  10 Km

Il sole sorge alle ore 05:08

Il sole tramonta alle ore 20:54

Data e Ora Cielo e Fenomeni T °C DP °C Um. % Pres. hPa Vis. km Vento km/h
Oggi h: 13:00 coperto_pioggia Pioggia Debole 19 15 77 1017 10 N 1.8
Oggi h: 12:30 coperto_pioggia Pioggia Debole 18 16 88 1017 10 N/NO 7.4
Oggi h: 12:00 coperto_pioggia Pioggia Debole 18 16 88 1017 10 N/NE 7.4
Oggi h: 11:30 coperto_pioggia Pioggia Debole 18 15 82 1016 10 N 7.4
Oggi h: 11:00 coperto_pioggia Pioggia Debole 18 15 82 1016 10 N 14.8
Oggi h: 10:30 coperto_pioggia Pioggia Debole 17 15 88 1016 10 N/NO 16.7
Oggi h: 10:00 coperto_pioggia Pioggia 17 15 88 1016 8 N/NO 16.7
Oggi h: 09:30 coperto_pioggia Pioggia 16 14 87 1016 9 N/NO 18.5
Oggi h: 09:00 nuvoloso_piovaschi Debole Rovescio di Pioggia 17 15 88 1016 10 N/NO 16.7
Oggi h: 08:30 nuvoloso_piovaschi Debole Rovescio di Pioggia 17 15 88 1015 10 N/NO 16.7
Oggi h: 08:00 nuvoloso_piovaschi Debole Rovescio di Pioggia 17 15 88 1015 9 N 18.5
Oggi h: 07:30 nuvoloso_piovaschi Rovescio di Pioggia 17 16 93 1014 6 N/NO 25.9
Oggi h: 07:00 nuvoloso_piovaschi Debole Rovescio di Pioggia 18 17 93 1014 6 N/NO 27.8
Oggi h: 06:30 nuvoloso_piovaschi Debole Rovescio di Pioggia 18 17 93 1014 6 N/NO 14.8
Oggi h: 06:00 coperto Rovescio nelle Vicinanze 19 18 93 1013 8 N 5.5
Oggi h: 05:30 molto_nuvoloso Molto Nuvoloso 19 18 93 1013 10 N 0
Oggi h: 05:00 sereno Sereno 19 18 93 1013 10 N 0
Oggi h: 04:30 coperto_pioggia Pioggia Debole 19 18 93 1013 10 N 1.8
Oggi h: 04:00 coperto_pioggia Pioggia Debole 19 18 93 1013 10 N 0
Oggi h: 03:30 coperto_pioggia Pioggia 19 18 93 1012 10 N 3.7
Oggi h: 03:00 coperto_pioggia Pioggia 19 18 93 1012 8 N 1.8
Oggi h: 02:30 coperto_pioggia Pioggia 20 19 93 1013 10 N 0
Oggi h: 02:00 coperto_pioggia Pioggia 20 19 93 1012 10 N 3.7
Oggi h: 01:30 coperto_pioggia Pioggia 20 18 88 1012 10 N 3.7
Oggi h: 01:00 coperto_pioggia Pioggia 21 18 82 1012 8 N 5.5
Oggi h: 00:30 coperto_pioggia Pioggia Debole 22 16 68 1012 10 S/SO 7.4
Oggi h: 00:00 sereno Sereno 22 16 68 1012 10 N/NE 9.3
Ieri h: 23:30 sereno Sereno 23 16 64 1012 10 N 11.1
Ieri h: 23:00 molto_nuvoloso Molto Nuvoloso 23 15 60 1011 10 N 11.1
Ieri h: 22:30 sereno Sereno 23 15 60 1012 10 N 14.8
Ieri h: 22:00 sereno Sereno 23 16 64 1012 10 N 13
Ieri h: 21:30 sereno Sereno 23 16 64 1012 10 N 14.8
Ieri h: 21:00 sereno Sereno 24 17 64 1011 10 N 14.8
Ieri h: 20:30 nuvoloso Nuvoloso 24 17 64 1011 10 N/NO 13
Ieri h: 20:00 nuvoloso Nuvoloso 26 18 61 1011 10 N/NE 11.1
Ieri h: 19:30 sereno Sereno 28 17 51 1011 10 N 5.5
Ieri h: 19:00 sereno Sereno 28 16 48 1011 10 N 5.5
Ieri h: 18:30 sereno Sereno 29 15 42 1011 10 N 5.5
Ieri h: 18:00 sereno Sereno 29 15 42 1011 10 N 3.7
Ieri h: 17:30 sereno Sereno 29 15 42 1011 10 NE 7.4
Ieri h: 17:00 sereno Sereno 28 15 45 1011 10 N 5.5
Ieri h: 16:30 sereno Sereno 29 16 45 1011 10 N 5.5
Ieri h: 16:00 sereno Sereno 29 14 39 1011 10 N 5.5
Ieri h: 15:30 molto_nuvoloso Molto Nuvoloso 29 15 42 1011 10 N 5.5
Ieri h: 15:00 molto_nuvoloso Molto Nuvoloso 29 15 42 1012 10 E/SE 7.4
Ieri h: 14:30 molto_nuvoloso Molto Nuvoloso 29 17 48 1012 10 E 9.3
Ieri h: 14:00 nuvoloso Nuvoloso 29 16 45 1012 10 E 9.3